< < Back
Terminal Aerodrome Forecast


Current Version              Previous Versions:   1  2  3  4  5  6  7  8  9  

Terminal Aerodrome Forecast

504
FTUS44 KBMX 270301 AAA
TAFBHM
TAF AMD
KBHM 270301Z 2703/2724 01010G18KT P6SM SCT025 BKN250
     FM270600 05007KT P6SM SCT250
     FM271500 03010KT P6SM SCT250=

Latest METAR

505
SAUS70 KWBC 280000 RRB
MTRBHM
METAR KBHM 272353Z 35005KT 10SM FEW150 OVC250 17/07 A2990 RMK AO2 SLP121
T01720072 10200 20172 55002


USA.gov is the U.S. government's official web portal to all federal, state and local government web resources and services.